sensor_id;sensor_type;location;lat;lon;timestamp;P1;durP1;ratioP1;P2;durP2;ratioP2
66575;SDS011;53428;47.686;16.584;2023-05-09T00:02:47;8.88;;;5.82;;
66575;SDS011;53428;47.686;16.584;2023-05-09T00:07:47;7.70;;;5.60;;
66575;SDS011;53428;47.686;16.584;2023-05-09T00:12:46;7.75;;;5.35;;
66575;SDS011;53428;47.686;16.584;2023-05-09T00:17:47;8.00;;;5.78;;
66575;SDS011;53428;47.686;16.584;2023-05-09T00:22:46;8.82;;;5.50;;
66575;SDS011;53428;47.686;16.584;2023-05-09T00:27:45;8.75;;;5.38;;
66575;SDS011;53428;47.686;16.584;2023-05-09T00:32:45;10.15;;;5.88;;
66575;SDS011;53428;47.686;16.584;2023-05-09T00:37:44;9.20;;;7.28;;
66575;SDS011;53428;47.686;16.584;2023-05-09T00:42:43;9.70;;;6.15;;
66575;SDS011;53428;47.686;16.584;2023-05-09T00:47:43;10.32;;;5.43;;
66575;SDS011;53428;47.686;16.584;2023-05-09T00:52:42;9.90;;;6.35;;
66575;SDS011;53428;47.686;16.584;2023-05-09T00:57:41;7.95;;;5.40;;
66575;SDS011;53428;47.686;16.584;2023-05-09T01:02:41;15.40;;;5.70;;
66575;SDS011;53428;47.686;16.584;2023-05-09T01:07:45;11.90;;;5.95;;
66575;SDS011;53428;47.686;16.584;2023-05-09T01:34:15;11.57;;;6.93;;
66575;SDS011;53428;47.686;16.584;2023-05-09T01:39:16;12.02;;;6.32;;
66575;SDS011;53428;47.686;16.584;2023-05-09T01:44:16;8.23;;;5.30;;
66575;SDS011;53428;47.686;16.584;2023-05-09T01:49:17;10.48;;;5.88;;
66575;SDS011;53428;47.686;16.584;2023-05-09T01:54:20;8.88;;;6.47;;
66575;SDS011;53428;47.686;16.584;2023-05-09T01:59:20;9.57;;;6.28;;
66575;SDS011;53428;47.686;16.584;2023-05-09T02:04:21;9.32;;;6.30;;
66575;SDS011;53428;47.686;16.584;2023-05-09T02:09:21;10.18;;;6.40;;
66575;SDS011;53428;47.686;16.584;2023-05-09T02:14:21;9.23;;;5.97;;
66575;SDS011;53428;47.686;16.584;2023-05-09T02:19:20;10.88;;;6.03;;
66575;SDS011;53428;47.686;16.584;2023-05-09T02:24:19;9.05;;;5.80;;
66575;SDS011;53428;47.686;16.584;2023-05-09T02:29:19;9.68;;;5.68;;
66575;SDS011;53428;47.686;16.584;2023-05-09T02:39:22;9.07;;;5.38;;
66575;SDS011;53428;47.686;16.584;2023-05-09T02:44:21;10.35;;;5.40;;
66575;SDS011;53428;47.686;16.584;2023-05-09T02:49:21;6.50;;;4.95;;
66575;SDS011;53428;47.686;16.584;2023-05-09T02:54:20;7.32;;;5.13;;
66575;SDS011;53428;47.686;16.584;2023-05-09T02:59:19;7.05;;;4.40;;
66575;SDS011;53428;47.686;16.584;2023-05-09T03:04:18;7.72;;;4.70;;
66575;SDS011;53428;47.686;16.584;2023-05-09T03:09:18;7.50;;;5.05;;
66575;SDS011;53428;47.686;16.584;2023-05-09T03:14:17;10.95;;;5.00;;
66575;SDS011;53428;47.686;16.584;2023-05-09T03:19:16;7.53;;;4.00;;
66575;SDS011;53428;47.686;16.584;2023-05-09T03:24:16;10.23;;;5.10;;
66575;SDS011;53428;47.686;16.584;2023-05-09T03:29:15;7.20;;;4.65;;
66575;SDS011;53428;47.686;16.584;2023-05-09T03:34:14;7.80;;;4.70;;
66575;SDS011;53428;47.686;16.584;2023-05-09T03:39:13;12.90;;;5.30;;
66575;SDS011;53428;47.686;16.584;2023-05-09T03:44:13;4.57;;;3.88;;
66575;SDS011;53428;47.686;16.584;2023-05-09T03:49:12;6.50;;;4.40;;
66575;SDS011;53428;47.686;16.584;2023-05-09T03:54:12;6.82;;;4.45;;
66575;SDS011;53428;47.686;16.584;2023-05-09T03:59:11;5.88;;;4.35;;
66575;SDS011;53428;47.686;16.584;2023-05-09T04:04:10;7.32;;;4.30;;
66575;SDS011;53428;47.686;16.584;2023-05-09T04:09:10;7.80;;;3.92;;
66575;SDS011;53428;47.686;16.584;2023-05-09T04:14:09;11.05;;;4.18;;
66575;SDS011;53428;47.686;16.584;2023-05-09T04:19:08;9.27;;;4.57;;
66575;SDS011;53428;47.686;16.584;2023-05-09T04:24:07;6.93;;;3.83;;
66575;SDS011;53428;47.686;16.584;2023-05-09T04:29:07;6.78;;;4.07;;
66575;SDS011;53428;47.686;16.584;2023-05-09T04:34:06;10.13;;;4.43;;
66575;SDS011;53428;47.686;16.584;2023-05-09T04:39:05;7.82;;;4.93;;
66575;SDS011;53428;47.686;16.584;2023-05-09T04:44:05;8.15;;;4.78;;
66575;SDS011;53428;47.686;16.584;2023-05-09T04:49:05;8.02;;;3.83;;
66575;SDS011;53428;47.686;16.584;2023-05-09T04:54:04;12.57;;;3.78;;
66575;SDS011;53428;47.686;16.584;2023-05-09T04:59:04;10.68;;;4.63;;
66575;SDS011;53428;47.686;16.584;2023-05-09T05:04:03;6.68;;;3.58;;
66575;SDS011;53428;47.686;16.584;2023-05-09T05:09:02;6.18;;;3.47;;
66575;SDS011;53428;47.686;16.584;2023-05-09T05:14:03;15.43;;;4.22;;
66575;SDS011;53428;47.686;16.584;2023-05-09T05:19:02;8.35;;;4.07;;
66575;SDS011;53428;47.686;16.584;2023-05-09T05:24:01;7.80;;;4.45;;
66575;SDS011;53428;47.686;16.584;2023-05-09T05:29:01;5.10;;;3.38;;
66575;SDS011;53428;47.686;16.584;2023-05-09T05:34:00;6.63;;;3.63;;
66575;SDS011;53428;47.686;16.584;2023-05-09T05:38:59;12.27;;;3.85;;
66575;SDS011;53428;47.686;16.584;2023-05-09T05:43:58;5.75;;;3.45;;
66575;SDS011;53428;47.686;16.584;2023-05-09T05:48:58;8.80;;;4.28;;
66575;SDS011;53428;47.686;16.584;2023-05-09T05:53:58;5.72;;;3.30;;
66575;SDS011;53428;47.686;16.584;2023-05-09T05:58:58;7.93;;;3.63;;
66575;SDS011;53428;47.686;16.584;2023-05-09T06:03:57;7.57;;;3.42;;
66575;SDS011;53428;47.686;16.584;2023-05-09T06:08:56;4.35;;;3.40;;
66575;SDS011;53428;47.686;16.584;2023-05-09T06:13:55;4.82;;;3.58;;
66575;SDS011;53428;47.686;16.584;2023-05-09T06:18:55;8.98;;;4.28;;
66575;SDS011;53428;47.686;16.584;2023-05-09T06:23:54;7.03;;;3.17;;
66575;SDS011;53428;47.686;16.584;2023-05-09T06:28:53;6.07;;;3.08;;
66575;SDS011;53428;47.686;16.584;2023-05-09T06:33:53;5.15;;;3.17;;
66575;SDS011;53428;47.686;16.584;2023-05-09T06:38:53;4.22;;;3.00;;
66575;SDS011;53428;47.686;16.584;2023-05-09T06:43:52;4.82;;;2.60;;
66575;SDS011;53428;47.686;16.584;2023-05-09T06:48:51;4.15;;;2.72;;
66575;SDS011;53428;47.686;16.584;2023-05-09T06:53:50;12.38;;;3.10;;
66575;SDS011;53428;47.686;16.584;2023-05-09T06:58:50;7.53;;;3.25;;
66575;SDS011;53428;47.686;16.584;2023-05-09T07:03:49;11.80;;;3.22;;
66575;SDS011;53428;47.686;16.584;2023-05-09T07:08:49;4.00;;;3.05;;
66575;SDS011;53428;47.686;16.584;2023-05-09T07:13:48;6.28;;;3.08;;
66575;SDS011;53428;47.686;16.584;2023-05-09T07:18:47;4.13;;;2.55;;
66575;SDS011;53428;47.686;16.584;2023-05-09T07:23:47;5.30;;;2.70;;
66575;SDS011;53428;47.686;16.584;2023-05-09T07:28:46;4.80;;;2.47;;
66575;SDS011;53428;47.686;16.584;2023-05-09T07:33:45;6.18;;;3.05;;
66575;SDS011;53428;47.686;16.584;2023-05-09T07:38:45;4.70;;;3.03;;
66575;SDS011;53428;47.686;16.584;2023-05-09T07:43:45;7.63;;;3.05;;
66575;SDS011;53428;47.686;16.584;2023-05-09T07:48:45;4.13;;;2.75;;
66575;SDS011;53428;47.686;16.584;2023-05-09T07:53:44;4.95;;;3.10;;
66575;SDS011;53428;47.686;16.584;2023-05-09T07:58:44;4.22;;;3.20;;
66575;SDS011;53428;47.686;16.584;2023-05-09T08:03:43;7.97;;;2.97;;
66575;SDS011;53428;47.686;16.584;2023-05-09T08:08:42;5.95;;;2.53;;
66575;SDS011;53428;47.686;16.584;2023-05-09T08:13:42;4.32;;;3.00;;
66575;SDS011;53428;47.686;16.584;2023-05-09T08:18:42;4.05;;;3.00;;
66575;SDS011;53428;47.686;16.584;2023-05-09T08:23:41;4.55;;;3.13;;
66575;SDS011;53428;47.686;16.584;2023-05-09T08:28:41;3.45;;;2.95;;
66575;SDS011;53428;47.686;16.584;2023-05-09T08:33:40;4.00;;;2.47;;
66575;SDS011;53428;47.686;16.584;2023-05-09T08:38:40;4.32;;;3.05;;
66575;SDS011;53428;47.686;16.584;2023-05-09T08:43:39;5.15;;;3.03;;
66575;SDS011;53428;47.686;16.584;2023-05-09T08:48:39;3.90;;;2.80;;
66575;SDS011;53428;47.686;16.584;2023-05-09T08:53:40;3.00;;;2.35;;
66575;SDS011;53428;47.686;16.584;2023-05-09T08:58:41;7.75;;;2.97;;
66575;SDS011;53428;47.686;16.584;2023-05-09T09:03:41;4.40;;;2.95;;
66575;SDS011;53428;47.686;16.584;2023-05-09T09:08:45;3.75;;;2.35;;
66575;SDS011;53428;47.686;16.584;2023-05-09T09:13:46;2.83;;;2.35;;
66575;SDS011;53428;47.686;16.584;2023-05-09T09:18:50;4.15;;;2.47;;
66575;SDS011;53428;47.686;16.584;2023-05-09T09:23:53;4.43;;;2.63;;
66575;SDS011;53428;47.686;16.584;2023-05-09T09:28:54;3.83;;;2.50;;
66575;SDS011;53428;47.686;16.584;2023-05-09T09:34:02;6.68;;;2.58;;
66575;SDS011;53428;47.686;16.584;2023-05-09T09:39:02;3.33;;;2.67;;
66575;SDS011;53428;47.686;16.584;2023-05-09T09:44:06;4.03;;;2.78;;
66575;SDS011;53428;47.686;16.584;2023-05-09T09:49:10;3.17;;;2.42;;
66575;SDS011;53428;47.686;16.584;2023-05-09T09:54:11;4.13;;;2.65;;
66575;SDS011;53428;47.686;16.584;2023-05-09T09:59:12;3.22;;;2.75;;
66575;SDS011;53428;47.686;16.584;2023-05-09T10:04:16;5.85;;;2.80;;
66575;SDS011;53428;47.686;16.584;2023-05-09T10:09:15;3.00;;;2.30;;
66575;SDS011;53428;47.686;16.584;2023-05-09T10:14:15;6.78;;;2.90;;
66575;SDS011;53428;47.686;16.584;2023-05-09T10:19:17;6.38;;;2.63;;
66575;SDS011;53428;47.686;16.584;2023-05-09T10:24:20;4.20;;;2.75;;
66575;SDS011;53428;47.686;16.584;2023-05-09T10:29:28;3.63;;;2.22;;
66575;SDS011;53428;47.686;16.584;2023-05-09T10:34:32;3.90;;;2.40;;
66575;SDS011;53428;47.686;16.584;2023-05-09T10:39:36;3.75;;;2.63;;
66575;SDS011;53428;47.686;16.584;2023-05-09T10:44:37;3.63;;;2.67;;
66575;SDS011;53428;47.686;16.584;2023-05-09T10:49:37;5.93;;;2.80;;
66575;SDS011;53428;47.686;16.584;2023-05-09T10:54:37;5.03;;;2.35;;
66575;SDS011;53428;47.686;16.584;2023-05-09T10:59:38;2.97;;;2.65;;
66575;SDS011;53428;47.686;16.584;2023-05-09T11:04:39;2.55;;;2.20;;
66575;SDS011;53428;47.686;16.584;2023-05-09T11:09:39;4.45;;;2.40;;
66575;SDS011;53428;47.686;16.584;2023-05-09T11:14:40;3.35;;;1.80;;
66575;SDS011;53428;47.686;16.584;2023-05-09T11:24:47;1.67;;;1.58;;
66575;SDS011;53428;47.686;16.584;2023-05-09T11:29:51;3.08;;;2.08;;
66575;SDS011;53428;47.686;16.584;2023-05-09T11:35:11;6.68;;;2.28;;
66575;SDS011;53428;47.686;16.584;2023-05-09T11:40:13;4.13;;;2.03;;
66575;SDS011;53428;47.686;16.584;2023-05-09T11:45:13;4.28;;;2.40;;
66575;SDS011;53428;47.686;16.584;2023-05-09T11:50:14;2.85;;;2.60;;
66575;SDS011;53428;47.686;16.584;2023-05-09T11:55:18;4.75;;;2.50;;
66575;SDS011;53428;47.686;16.584;2023-05-09T12:00:21;3.72;;;1.90;;
66575;SDS011;53428;47.686;16.584;2023-05-09T12:05:21;2.70;;;2.20;;
66575;SDS011;53428;47.686;16.584;2023-05-09T12:10:21;6.90;;;2.58;;
66575;SDS011;53428;47.686;16.584;2023-05-09T12:15:21;3.17;;;2.05;;
66575;SDS011;53428;47.686;16.584;2023-05-09T12:20:20;2.40;;;2.20;;
66575;SDS011;53428;47.686;16.584;2023-05-09T12:25:20;2.63;;;2.28;;
66575;SDS011;53428;47.686;16.584;2023-05-09T12:30:20;4.53;;;2.47;;
66575;SDS011;53428;47.686;16.584;2023-05-09T12:35:20;2.78;;;2.42;;
66575;SDS011;53428;47.686;16.584;2023-05-09T12:40:21;2.40;;;2.20;;
66575;SDS011;53428;47.686;16.584;2023-05-09T12:45:20;2.75;;;2.03;;
66575;SDS011;53428;47.686;16.584;2023-05-09T12:50:20;3.47;;;2.20;;
66575;SDS011;53428;47.686;16.584;2023-05-09T12:55:19;6.70;;;2.20;;
66575;SDS011;53428;47.686;16.584;2023-05-09T13:00:19;2.10;;;1.90;;
66575;SDS011;53428;47.686;16.584;2023-05-09T13:05:19;4.20;;;2.33;;
66575;SDS011;53428;47.686;16.584;2023-05-09T13:10:23;2.72;;;2.20;;
66575;SDS011;53428;47.686;16.584;2023-05-09T13:15:25;6.28;;;2.50;;
66575;SDS011;53428;47.686;16.584;2023-05-09T13:20:25;3.72;;;2.40;;
66575;SDS011;53428;47.686;16.584;2023-05-09T13:25:24;3.53;;;2.72;;
66575;SDS011;53428;47.686;16.584;2023-05-09T13:30:23;6.32;;;2.63;;
66575;SDS011;53428;47.686;16.584;2023-05-09T13:35:23;4.30;;;2.35;;
66575;SDS011;53428;47.686;16.584;2023-05-09T13:40:22;3.10;;;2.40;;
66575;SDS011;53428;47.686;16.584;2023-05-09T13:45:21;3.17;;;2.30;;
66575;SDS011;53428;47.686;16.584;2023-05-09T13:50:21;2.50;;;2.30;;
66575;SDS011;53428;47.686;16.584;2023-05-09T13:55:20;3.17;;;2.22;;
66575;SDS011;53428;47.686;16.584;2023-05-09T14:00:20;2.58;;;2.15;;
66575;SDS011;53428;47.686;16.584;2023-05-09T14:05:19;5.28;;;2.15;;
66575;SDS011;53428;47.686;16.584;2023-05-09T14:10:19;3.67;;;1.90;;
66575;SDS011;53428;47.686;16.584;2023-05-09T14:15:18;5.10;;;2.60;;
66575;SDS011;53428;47.686;16.584;2023-05-09T14:20:18;7.20;;;2.63;;
66575;SDS011;53428;47.686;16.584;2023-05-09T14:25:18;2.83;;;2.25;;
66575;SDS011;53428;47.686;16.584;2023-05-09T14:30:18;4.50;;;2.10;;
66575;SDS011;53428;47.686;16.584;2023-05-09T14:35:17;3.85;;;2.47;;
66575;SDS011;53428;47.686;16.584;2023-05-09T14:40:17;2.35;;;2.00;;
66575;SDS011;53428;47.686;16.584;2023-05-09T14:45:20;5.70;;;1.95;;
66575;SDS011;53428;47.686;16.584;2023-05-09T14:50:19;2.47;;;2.28;;
66575;SDS011;53428;47.686;16.584;2023-05-09T14:55:19;4.85;;;2.70;;
66575;SDS011;53428;47.686;16.584;2023-05-09T15:00:20;2.85;;;1.90;;
66575;SDS011;53428;47.686;16.584;2023-05-09T15:05:20;3.50;;;1.85;;
66575;SDS011;53428;47.686;16.584;2023-05-09T15:10:20;4.97;;;1.90;;
66575;SDS011;53428;47.686;16.584;2023-05-09T15:15:20;2.88;;;2.38;;
66575;SDS011;53428;47.686;16.584;2023-05-09T15:20:23;5.68;;;3.05;;
66575;SDS011;53428;47.686;16.584;2023-05-09T15:25:22;2.90;;;2.13;;
66575;SDS011;53428;47.686;16.584;2023-05-09T15:30:22;2.95;;;2.28;;
66575;SDS011;53428;47.686;16.584;2023-05-09T15:35:21;2.42;;;2.05;;
66575;SDS011;53428;47.686;16.584;2023-05-09T15:40:20;7.38;;;2.53;;
66575;SDS011;53428;47.686;16.584;2023-05-09T15:45:19;3.50;;;2.28;;
66575;SDS011;53428;47.686;16.584;2023-05-09T15:50:19;3.30;;;2.00;;
66575;SDS011;53428;47.686;16.584;2023-05-09T15:55:19;2.53;;;2.00;;
66575;SDS011;53428;47.686;16.584;2023-05-09T16:00:18;1.95;;;1.85;;
66575;SDS011;53428;47.686;16.584;2023-05-09T16:05:17;6.80;;;2.10;;
66575;SDS011;53428;47.686;16.584;2023-05-09T16:10:17;1.88;;;1.75;;
66575;SDS011;53428;47.686;16.584;2023-05-09T16:15:16;2.75;;;2.15;;
66575;SDS011;53428;47.686;16.584;2023-05-09T16:20:15;2.92;;;2.25;;
66575;SDS011;53428;47.686;16.584;2023-05-09T16:25:15;4.22;;;2.15;;
66575;SDS011;53428;47.686;16.584;2023-05-09T16:30:14;4.85;;;2.13;;
66575;SDS011;53428;47.686;16.584;2023-05-09T16:35:14;1.98;;;1.70;;
66575;SDS011;53428;47.686;16.584;2023-05-09T16:40:13;2.08;;;1.88;;
66575;SDS011;53428;47.686;16.584;2023-05-09T16:45:13;2.20;;;2.00;;
66575;SDS011;53428;47.686;16.584;2023-05-09T16:50:12;3.30;;;2.25;;
66575;SDS011;53428;47.686;16.584;2023-05-09T16:55:11;3.47;;;2.20;;
66575;SDS011;53428;47.686;16.584;2023-05-09T17:00:11;3.08;;;1.98;;
66575;SDS011;53428;47.686;16.584;2023-05-09T17:05:11;3.15;;;2.58;;
66575;SDS011;53428;47.686;16.584;2023-05-09T17:10:10;5.03;;;2.30;;
66575;SDS011;53428;47.686;16.584;2023-05-09T17:15:09;4.32;;;2.35;;
66575;SDS011;53428;47.686;16.584;2023-05-09T17:20:09;4.28;;;1.98;;
66575;SDS011;53428;47.686;16.584;2023-05-09T17:25:09;3.65;;;2.22;;
66575;SDS011;53428;47.686;16.584;2023-05-09T17:30:08;4.43;;;2.45;;
66575;SDS011;53428;47.686;16.584;2023-05-09T17:35:08;4.07;;;2.40;;
66575;SDS011;53428;47.686;16.584;2023-05-09T17:40:08;4.38;;;2.03;;
66575;SDS011;53428;47.686;16.584;2023-05-09T17:45:08;3.95;;;2.45;;
66575;SDS011;53428;47.686;16.584;2023-05-09T17:50:09;4.97;;;3.50;;
66575;SDS011;53428;47.686;16.584;2023-05-09T17:55:11;6.78;;;3.08;;
66575;SDS011;53428;47.686;16.584;2023-05-09T18:00:11;3.65;;;2.55;;
66575;SDS011;53428;47.686;16.584;2023-05-09T18:05:11;3.55;;;2.70;;
66575;SDS011;53428;47.686;16.584;2023-05-09T18:10:10;3.83;;;2.40;;
66575;SDS011;53428;47.686;16.584;2023-05-09T18:15:10;3.28;;;2.40;;
66575;SDS011;53428;47.686;16.584;2023-05-09T18:20:09;3.60;;;2.20;;
66575;SDS011;53428;47.686;16.584;2023-05-09T18:25:09;9.15;;;2.72;;
66575;SDS011;53428;47.686;16.584;2023-05-09T18:30:08;5.70;;;3.50;;
66575;SDS011;53428;47.686;16.584;2023-05-09T18:35:08;5.65;;;3.75;;
66575;SDS011;53428;47.686;16.584;2023-05-09T18:40:08;4.53;;;3.38;;
66575;SDS011;53428;47.686;16.584;2023-05-09T18:45:12;4.65;;;2.88;;
66575;SDS011;53428;47.686;16.584;2023-05-09T18:50:11;4.55;;;2.65;;
66575;SDS011;53428;47.686;16.584;2023-05-09T18:55:11;4.10;;;3.08;;
66575;SDS011;53428;47.686;16.584;2023-05-09T19:00:12;3.83;;;2.97;;
66575;SDS011;53428;47.686;16.584;2023-05-09T19:05:12;5.05;;;2.97;;
66575;SDS011;53428;47.686;16.584;2023-05-09T19:10:12;3.03;;;2.42;;
66575;SDS011;53428;47.686;16.584;2023-05-09T19:15:15;5.80;;;2.75;;
66575;SDS011;53428;47.686;16.584;2023-05-09T19:20:15;5.70;;;2.67;;
66575;SDS011;53428;47.686;16.584;2023-05-09T19:25:15;4.85;;;2.90;;
66575;SDS011;53428;47.686;16.584;2023-05-09T19:30:16;4.47;;;2.65;;
66575;SDS011;53428;47.686;16.584;2023-05-09T19:35:15;6.93;;;3.25;;
66575;SDS011;53428;47.686;16.584;2023-05-09T19:40:14;4.85;;;2.40;;
66575;SDS011;53428;47.686;16.584;2023-05-09T19:45:14;3.42;;;2.78;;
66575;SDS011;53428;47.686;16.584;2023-05-09T19:50:13;3.45;;;2.88;;
66575;SDS011;53428;47.686;16.584;2023-05-09T19:55:13;10.10;;;3.88;;
66575;SDS011;53428;47.686;16.584;2023-05-09T20:00:12;3.67;;;2.50;;
66575;SDS011;53428;47.686;16.584;2023-05-09T20:05:12;5.43;;;3.38;;
66575;SDS011;53428;47.686;16.584;2023-05-09T20:10:11;4.43;;;2.22;;
66575;SDS011;53428;47.686;16.584;2023-05-09T20:15:11;3.95;;;2.60;;
66575;SDS011;53428;47.686;16.584;2023-05-09T20:20:11;6.97;;;3.40;;
66575;SDS011;53428;47.686;16.584;2023-05-09T20:25:11;4.57;;;2.80;;
66575;SDS011;53428;47.686;16.584;2023-05-09T20:30:11;7.05;;;3.95;;
66575;SDS011;53428;47.686;16.584;2023-05-09T20:35:10;15.25;;;3.53;;
66575;SDS011;53428;47.686;16.584;2023-05-09T20:40:09;7.85;;;3.70;;
66575;SDS011;53428;47.686;16.584;2023-05-09T20:45:09;4.57;;;3.03;;
66575;SDS011;53428;47.686;16.584;2023-05-09T20:50:09;4.40;;;3.53;;
66575;SDS011;53428;47.686;16.584;2023-05-09T20:55:08;7.70;;;3.75;;
66575;SDS011;53428;47.686;16.584;2023-05-09T21:00:07;8.45;;;3.47;;
66575;SDS011;53428;47.686;16.584;2023-05-09T21:05:07;6.82;;;3.53;;
66575;SDS011;53428;47.686;16.584;2023-05-09T21:10:06;5.38;;;3.30;;
66575;SDS011;53428;47.686;16.584;2023-05-09T21:15:08;4.93;;;3.40;;
66575;SDS011;53428;47.686;16.584;2023-05-09T21:20:08;4.47;;;3.15;;
66575;SDS011;53428;47.686;16.584;2023-05-09T21:25:07;5.50;;;3.38;;
66575;SDS011;53428;47.686;16.584;2023-05-09T21:30:07;4.22;;;3.45;;
66575;SDS011;53428;47.686;16.584;2023-05-09T21:35:06;4.50;;;3.22;;
66575;SDS011;53428;47.686;16.584;2023-05-09T21:40:10;4.47;;;2.50;;
66575;SDS011;53428;47.686;16.584;2023-05-09T21:45:10;4.35;;;2.85;;
66575;SDS011;53428;47.686;16.584;2023-05-09T21:50:09;13.10;;;4.63;;
66575;SDS011;53428;47.686;16.584;2023-05-09T21:55:08;4.05;;;3.15;;
66575;SDS011;53428;47.686;16.584;2023-05-09T22:00:08;5.07;;;3.00;;
66575;SDS011;53428;47.686;16.584;2023-05-09T22:05:12;5.97;;;3.95;;
66575;SDS011;53428;47.686;16.584;2023-05-09T22:10:11;7.75;;;3.90;;
66575;SDS011;53428;47.686;16.584;2023-05-09T22:15:10;7.35;;;3.40;;
66575;SDS011;53428;47.686;16.584;2023-05-09T22:20:10;8.63;;;3.30;;
66575;SDS011;53428;47.686;16.584;2023-05-09T22:25:10;5.93;;;3.42;;
66575;SDS011;53428;47.686;16.584;2023-05-09T22:30:09;9.30;;;3.38;;
66575;SDS011;53428;47.686;16.584;2023-05-09T22:35:09;6.10;;;3.53;;
66575;SDS011;53428;47.686;16.584;2023-05-09T22:40:09;8.50;;;3.72;;
66575;SDS011;53428;47.686;16.584;2023-05-09T22:45:09;9.55;;;3.92;;
66575;SDS011;53428;47.686;16.584;2023-05-09T22:50:08;5.57;;;3.55;;
66575;SDS011;53428;47.686;16.584;2023-05-09T22:55:08;4.63;;;3.30;;
66575;SDS011;53428;47.686;16.584;2023-05-09T23:00:07;6.32;;;3.95;;
66575;SDS011;53428;47.686;16.584;2023-05-09T23:05:07;7.72;;;3.95;;
66575;SDS011;53428;47.686;16.584;2023-05-09T23:10:07;4.25;;;3.10;;
66575;SDS011;53428;47.686;16.584;2023-05-09T23:15:07;6.20;;;3.92;;
66575;SDS011;53428;47.686;16.584;2023-05-09T23:20:07;6.93;;;3.65;;
66575;SDS011;53428;47.686;16.584;2023-05-09T23:25:07;5.25;;;3.47;;
66575;SDS011;53428;47.686;16.584;2023-05-09T23:30:07;5.25;;;3.03;;
66575;SDS011;53428;47.686;16.584;2023-05-09T23:35:07;7.32;;;4.00;;
66575;SDS011;53428;47.686;16.584;2023-05-09T23:40:07;7.55;;;3.97;;
66575;SDS011;53428;47.686;16.584;2023-05-09T23:45:07;5.05;;;3.47;;
66575;SDS011;53428;47.686;16.584;2023-05-09T23:50:07;5.53;;;4.18;;
66575;SDS011;53428;47.686;16.584;2023-05-09T23:55:06;4.70;;;3.83;;
